Time;durP1;ratioP1;P1;durP2;ratioP2;P2;SDS_P1;SDS_P2;PMS_P1;PMS_P2;Temp;Humidity;BMP_temperature;BMP_pressure;BME280_temperature;BME280_humidity;BME280_pressure;Samples;Min_cycle;Max_cycle;Signal;HPM_P1;HPM_P2
2022/08/25 00:03:21;;;;;;;5.97;1.80;;;23.80;99.90;;;;;;12407671;28;20411;-81
2022/08/25 00:09:26;;;;;;;4.55;1.80;;;23.60;99.90;;;;;;12399136;28;20065;-81
2022/08/25 00:15:30;;;;;;;3.83;1.70;;;23.50;99.90;;;;;;12409038;28;20119;-82
2022/08/25 00:21:32;;;;;;;6.35;2.00;;;23.40;99.90;;;;;;12412820;28;20104;-82
2022/08/25 00:27:34;;;;;;;3.53;1.92;;;23.50;99.90;;;;;;12404435;28;20134;-81
2022/08/25 00:33:36;;;;;;;4.20;1.63;;;23.40;99.90;;;;;;12498217;28;20521;-82
2022/08/25 00:39:38;;;;;;;6.30;1.92;;;23.30;99.90;;;;;;12493331;28;20049;-82
2022/08/25 00:45:41;;;;;;;9.07;3.53;;;23.30;99.90;;;;;;12471609;28;20041;-82
2022/08/25 00:51:50;;;;;;;6.40;1.60;;;23.10;99.90;;;;;;12505974;28;20053;-81
2022/08/25 00:58:18;;;;;;;5.68;1.60;;;23.00;99.90;;;;;;12485897;28;20064;-81
2022/08/25 01:04:21;;;;;;;8.73;1.83;;;22.80;99.90;;;;;;12489749;28;20115;-81
2022/08/25 01:10:25;;;;;;;5.13;1.83;;;22.70;99.90;;;;;;12493911;28;20042;-81
2022/08/25 01:16:27;;;;;;;8.20;2.03;;;22.60;99.90;;;;;;12486123;28;20053;-81
2022/08/25 01:22:30;;;;;;;6.83;2.27;;;22.60;99.90;;;;;;12487170;28;20053;-82
2022/08/25 01:28:34;;;;;;;3.33;1.53;;;22.60;99.90;;;;;;12495918;28;20053;-82
2022/08/25 01:34:40;;;;;;;11.70;2.47;;;22.50;99.90;;;;;;12489960;28;20501;-81
2022/08/25 01:40:42;;;;;;;10.00;3.50;;;22.40;99.90;;;;;;12489836;28;20057;-81
2022/08/25 01:46:44;;;;;;;4.72;1.52;;;22.30;99.90;;;;;;12490021;28;20049;-82
2022/08/25 01:52:58;;;;;;;4.65;1.73;;;22.40;99.90;;;;;;12485864;28;20532;-81
2022/08/25 01:59:01;;;;;;;4.28;1.95;;;22.20;99.90;;;;;;12501695;28;20041;-81
2022/08/25 02:05:03;;;;;;;4.00;1.70;;;22.20;99.90;;;;;;12504460;28;20405;-81
2022/08/25 02:11:13;;;;;;;3.25;1.50;;;22.20;99.90;;;;;;12526942;28;20279;-81
2022/08/25 02:17:16;;;;;;;3.25;1.70;;;22.30;99.90;;;;;;12510574;28;20472;-81
2022/08/25 02:23:19;;;;;;;5.33;1.90;;;22.10;99.90;;;;;;12510488;28;20040;-81
2022/08/25 02:29:22;;;;;;;5.97;1.95;;;22.00;99.90;;;;;;12504867;28;20049;-81
2022/08/25 02:35:24;;;;;;;5.28;1.90;;;21.80;99.90;;;;;;12465785;28;20132;-82
2022/08/25 02:41:27;;;;;;;4.50;2.05;;;21.60;99.90;;;;;;12508979;28;20425;-81
2022/08/25 02:47:32;;;;;;;5.43;1.90;;;21.60;99.90;;;;;;12501315;28;20045;-81
2022/08/25 02:53:38;;;;;;;5.97;1.73;;;21.60;99.90;;;;;;12485498;28;20045;-81
2022/08/25 02:59:40;;;;;;;3.13;1.73;;;21.50;99.90;;;;;;12486862;28;20050;-81
2022/08/25 03:05:43;;;;;;;8.48;2.15;;;21.50;99.90;;;;;;12481421;28;20098;-82
2022/08/25 03:11:46;;;;;;;4.68;2.30;;;21.30;99.90;;;;;;12498989;28;20061;-81
2022/08/25 03:17:48;;;;;;;6.35;2.50;;;21.30;99.90;;;;;;12495826;28;20057;-81
2022/08/25 03:23:51;;;;;;;4.93;2.05;;;21.30;99.90;;;;;;12491541;28;20045;-81
2022/08/25 03:29:56;;;;;;;8.05;2.33;;;21.20;99.90;;;;;;12505945;28;20058;-81
2022/08/25 03:35:58;;;;;;;8.00;2.40;;;21.10;99.90;;;;;;12473936;28;20044;-81
2022/08/25 03:42:03;;;;;;;4.28;2.40;;;21.20;99.90;;;;;;12480795;28;20045;-81
2022/08/25 03:48:05;;;;;;;5.05;2.33;;;21.20;99.90;;;;;;12489052;28;20061;-81
2022/08/25 03:54:09;;;;;;;2.85;1.98;;;21.20;99.90;;;;;;12495350;28;20065;-82
2022/08/25 04:00:12;;;;;;;5.38;2.13;;;21.40;99.90;;;;;;12474327;28;20056;-81
2022/08/25 04:06:15;;;;;;;4.50;2.10;;;21.30;99.90;;;;;;12495114;28;20046;-82
2022/08/25 04:12:17;;;;;;;;;;;21.20;99.90;;;;;;12494913;28;20046;-81
2022/08/25 04:18:20;;;;;;;3.78;1.98;;;21.10;99.90;;;;;;12482833;28;19921;-81
2022/08/25 04:24:22;;;;;;;5.63;2.25;;;21.00;99.90;;;;;;12484610;28;20056;-82
2022/08/25 04:30:25;;;;;;;5.22;2.33;;;21.00;99.90;;;;;;12467448;28;20060;-81
2022/08/25 04:36:27;;;;;;;3.97;2.00;;;21.00;99.90;;;;;;12486872;28;20129;-81
2022/08/25 04:42:29;;;;;;;6.00;2.38;;;20.80;99.90;;;;;;12516566;28;20049;-81
2022/08/25 04:48:31;;;;;;;6.03;2.15;;;20.60;99.90;;;;;;12497501;28;20049;-81
2022/08/25 04:54:34;;;;;;;9.00;2.17;;;20.50;99.90;;;;;;12478439;28;20476;-81
2022/08/25 05:00:39;;;;;;;8.95;2.55;;;20.60;99.90;;;;;;12494974;28;20057;-81
2022/08/25 05:06:42;;;;;;;6.20;2.00;;;20.60;99.90;;;;;;12486127;28;20057;-81
2022/08/25 05:12:46;;;;;;;4.95;2.13;;;20.70;99.90;;;;;;12488528;28;20065;-81
2022/08/25 05:18:48;;;;;;;4.95;2.08;;;20.70;99.90;;;;;;12475898;28;20053;-81
2022/08/25 05:24:50;;;;;;;8.07;2.35;;;20.70;99.90;;;;;;12476568;28;20097;-81
2022/08/25 05:30:58;;;;;;;7.68;2.40;;;20.80;99.90;;;;;;12475925;28;20048;-81
2022/08/25 05:37:02;;;;;;;10.15;2.55;;;20.70;99.90;;;;;;12500088;28;20480;-81
2022/08/25 05:43:04;;;;;;;10.68;2.97;;;20.90;99.90;;;;;;12477991;28;20045;-81
2022/08/25 05:49:07;;;;;;;8.23;2.38;;;20.90;99.90;;;;;;12488842;28;20046;-81
2022/08/25 05:55:09;;;;;;;8.32;2.80;;;20.90;99.90;;;;;;12470206;28;20125;-81
2022/08/25 06:07:54;;;;;;;5.85;2.10;;;21.10;99.90;;;;;;12437506;28;20049;-81
2022/08/25 06:13:56;;;;;;;6.65;2.50;;;21.30;99.90;;;;;;12486289;28;20549;-81
2022/08/25 06:19:59;;;;;;;5.78;2.45;;;21.40;99.90;;;;;;12483462;28;20458;-81
2022/08/25 06:26:01;;;;;;;6.13;2.70;;;21.50;99.90;;;;;;12475484;28;20133;-81
2022/08/25 06:32:04;;;;;;;7.05;2.63;;;21.70;99.90;;;;;;12426605;28;20144;-81
2022/08/25 06:38:06;;;;;;;7.67;2.70;;;21.90;99.90;;;;;;12403788;28;20089;-81
2022/08/25 06:44:09;;;;;;;7.00;2.97;;;22.10;99.90;;;;;;12405832;28;20081;-81
2022/08/25 06:50:14;;;;;;;5.53;2.55;;;22.30;99.90;;;;;;12407365;28;20049;-81
2022/08/25 06:56:18;;;;;;;6.63;2.72;;;22.50;99.90;;;;;;12408297;28;20105;-81
2022/08/25 07:02:20;;;;;;;6.10;3.10;;;22.60;99.90;;;;;;12401147;28;20061;-81
2022/08/25 07:08:23;;;;;;;7.23;2.97;;;22.70;99.90;;;;;;12423078;28;20047;-81
2022/08/25 07:14:25;;;;;;;6.00;2.78;;;22.70;99.90;;;;;;12391256;28;20120;-81
2022/08/25 07:20:28;;;;;;;4.70;2.63;;;22.60;99.90;;;;;;12422240;28;20123;-81
2022/08/25 07:26:35;;;;;;;6.40;2.63;;;22.70;99.90;;;;;;12415142;28;20050;-82
2022/08/25 07:32:39;;;;;;;8.20;2.67;;;22.80;99.90;;;;;;12438390;28;20053;-82
2022/08/25 07:38:43;;;;;;;7.50;2.72;;;22.90;99.90;;;;;;12454444;28;20054;-82
2022/08/25 07:44:46;;;;;;;8.20;3.20;;;23.00;99.90;;;;;;12444471;28;20046;-81
2022/08/25 07:50:48;;;;;;;7.22;3.42;;;23.30;99.90;;;;;;12460487;28;20050;-81
2022/08/25 07:56:50;;;;;;;12.07;3.88;;;23.80;99.90;;;;;;12454944;28;20053;-81
2022/08/25 08:02:53;;;;;;;12.13;4.25;;;24.00;99.90;;;;;;12438944;28;20173;-81
2022/08/25 08:08:56;;;;;;;9.32;4.03;;;24.30;99.90;;;;;;12442089;28;20495;-81
2022/08/25 08:15:00;;;;;;;7.82;4.20;;;24.50;99.90;;;;;;12446113;28;20046;-80
2022/08/25 08:21:02;;;;;;;5.80;4.00;;;24.70;99.90;;;;;;12442353;28;20050;-81
2022/08/25 08:27:07;;;;;;;12.43;3.70;;;24.90;99.90;;;;;;12443402;28;20085;-81
2022/08/25 08:33:09;;;;;;;6.68;4.88;;;25.20;99.90;;;;;;12412629;28;20042;-80
2022/08/25 08:39:13;;;;;;;7.45;4.30;;;25.40;99.90;;;;;;12392140;28;20050;-81
2022/08/25 08:45:20;;;;;;;9.88;5.40;;;25.50;99.90;;;;;;12399167;28;20085;-81
2022/08/25 08:51:46;;;;;;;11.90;5.50;;;25.70;99.90;;;;;;12389396;28;20724;-81
2022/08/25 08:57:50;;;;;;;9.73;5.63;;;25.70;99.90;;;;;;12392635;28;20506;-80
2022/08/25 09:04:14;;;;;;;10.88;6.10;;;26.00;99.90;;;;;;12403001;28;20031;-81
2022/08/25 09:10:18;;;;;;;9.57;5.10;;;26.20;99.90;;;;;;12392574;28;20133;-81
2022/08/25 09:16:53;;;;;;;9.93;5.70;;;26.30;99.90;;;;;;12398722;28;20046;-80
2022/08/25 09:23:24;;;;;;;11.85;6.00;;;26.40;99.90;;;;;;12405304;28;20483;-80
2022/08/25 09:29:34;;;;;;;9.05;5.72;;;26.30;99.90;;;;;;12415099;28;20053;-80
2022/08/25 09:35:39;;;;;;;9.40;5.60;;;26.50;99.90;;;;;;12467931;28;20041;-80
2022/08/25 09:41:55;;;;;;;11.45;6.22;;;26.60;99.90;;;;;;12483401;28;20045;-80
2022/08/25 09:47:57;;;;;;;11.07;5.85;;;26.70;99.90;;;;;;12467169;28;21393;-80
2022/08/25 09:54:03;;;;;;;12.60;6.23;;;26.80;99.90;;;;;;12476646;28;20049;-80
2022/08/25 10:00:17;;;;;;;10.10;6.07;;;26.70;99.90;;;;;;12477059;28;20045;-79
2022/08/25 10:06:20;;;;;;;12.40;5.50;;;26.90;99.90;;;;;;12485311;28;20056;-80
2022/08/25 10:12:39;;;;;;;14.68;5.97;;;27.20;99.90;;;;;;12474780;28;20105;-81
2022/08/25 10:18:43;;;;;;;8.95;6.15;;;27.20;99.90;;;;;;12507210;28;20103;-81
2022/08/25 10:24:47;;;;;;;13.38;6.78;;;27.20;99.90;;;;;;12481357;28;20486;-81
2022/08/25 10:31:21;;;;;;;11.77;6.18;;;27.60;99.90;;;;;;12470978;28;20076;-81
2022/08/25 10:37:33;;;;;;;12.55;6.03;;;27.60;99.90;;;;;;12479725;28;20501;-82
2022/08/25 10:45:41;;;;;;;12.25;6.45;;;27.40;99.90;;;;;;12485222;28;20044;-81
2022/08/25 10:50:55;;;;;;;12.20;6.32;;;27.50;99.90;;;;;;12505910;28;20417;-81
2022/08/25 10:57:14;;;;;;;12.85;6.50;;;27.60;99.90;;;;;;12498575;28;20057;-80
2022/08/25 11:03:34;;;;;;;8.63;6.10;;;28.10;99.90;;;;;;12480183;28;20060;-81
2022/08/25 11:09:46;;;;;;;8.80;5.88;;;28.30;99.90;;;;;;12482698;28;20053;-81
2022/08/25 11:15:54;;;;;;;10.65;5.63;;;28.60;99.90;;;;;;12468427;28;20045;-81
2022/08/25 11:22:32;;;;;;;12.75;5.57;;;28.30;99.90;;;;;;12488462;28;20109;-82
2022/08/25 11:28:59;;;;;;;8.18;5.47;;;28.40;99.90;;;;;;12496970;28;20069;-81
2022/08/25 11:35:05;;;;;;;8.93;5.18;;;28.30;99.90;;;;;;12475431;28;20517;-81
2022/08/25 11:41:10;;;;;;;12.77;5.20;;;29.20;99.90;;;;;;12497912;28;20045;-81
2022/08/25 11:47:26;;;;;;;12.25;4.70;;;29.40;99.90;;;;;;12476243;28;20069;-80
2022/08/25 11:53:47;;;;;;;8.10;5.38;;;29.10;99.90;;;;;;12481919;28;20045;-81
2022/08/25 11:59:53;;;;;;;12.73;5.32;;;29.40;99.90;;;;;;12483926;28;20053;-82
2022/08/25 12:06:16;;;;;;;8.65;5.30;;;28.80;99.90;;;;;;12480969;28;20052;-80
2022/08/25 12:12:27;;;;;;;;;;;28.30;99.90;;;;;;12490580;28;20092;-81
2022/08/25 12:18:28;;;;;;;11.70;5.40;;;28.30;99.90;;;;;;12469621;28;19929;-81
2022/08/25 12:24:42;;;;;;;11.83;5.07;;;28.80;99.90;;;;;;12473624;28;20054;-81
2022/08/25 12:30:57;;;;;;;10.23;5.43;;;28.70;99.90;;;;;;12487879;28;20049;-81
2022/08/25 12:37:20;;;;;;;7.25;4.88;;;28.30;99.90;;;;;;12493166;28;20527;-81
2022/08/25 12:43:30;;;;;;;9.82;5.07;;;28.00;99.90;;;;;;12495670;28;20041;-80
2022/08/25 12:49:38;;;;;;;7.82;5.03;;;28.00;99.90;;;;;;12492371;28;20042;-80
2022/08/25 12:55:48;;;;;;;11.25;5.38;;;28.30;99.90;;;;;;12474042;28;20472;-79
2022/08/25 13:02:06;;;;;;;10.80;5.22;;;28.70;99.90;;;;;;12478171;28;20056;-80
2022/08/25 13:08:33;;;;;;;9.93;4.95;;;28.60;99.90;;;;;;12488200;28;20064;-80
2022/08/25 13:14:40;;;;;;;8.65;4.75;;;29.80;99.90;;;;;;12462505;28;20045;-80
2022/08/25 13:20:46;;;;;;;7.07;4.05;;;30.00;99.90;;;;;;12495385;28;20073;-80
2022/08/25 13:26:55;;;;;;;11.52;5.18;;;30.50;99.90;;;;;;12480767;28;20140;-80
2022/08/25 13:32:58;;;;;;;7.85;4.40;;;30.50;99.90;;;;;;12475869;28;20502;-81
2022/08/25 13:39:32;;;;;;;6.93;4.55;;;29.90;99.90;;;;;;12473879;28;20077;-81
2022/08/25 13:45:55;;;;;;;14.57;4.70;;;29.90;99.90;;;;;;12464533;28;20072;-81
2022/08/25 13:51:58;;;;;;;7.85;4.55;;;30.30;99.90;;;;;;12474922;28;20053;-81
2022/08/25 13:58:01;;;;;;;12.07;5.30;;;30.70;99.90;;;;;;12499198;28;20396;-82
2022/08/25 14:04:27;;;;;;;15.00;5.10;;;30.50;99.90;;;;;;12488349;28;20126;-83
2022/08/25 14:10:43;;;;;;;11.52;5.10;;;30.30;99.90;;;;;;12479356;28;20083;-83
2022/08/25 14:16:50;;;;;;;9.25;4.45;;;29.90;99.90;;;;;;12472574;28;20050;-81
2022/08/25 14:23:03;;;;;;;7.47;4.65;;;29.90;99.90;;;;;;12486828;28;20456;-82
2022/08/25 14:29:12;;;;;;;11.30;4.95;;;30.30;99.90;;;;;;12476599;28;20068;-81
2022/08/25 14:35:17;;;;;;;11.20;5.35;;;30.50;99.90;;;;;;12481039;28;20042;-81
2022/08/25 14:41:22;;;;;;;11.95;5.38;;;31.00;99.90;;;;;;12490193;28;20109;-81
2022/08/25 14:47:24;;;;;;;7.50;4.40;;;31.10;99.90;;;;;;12478315;28;20046;-81
2022/08/25 14:53:26;;;;;;;;;;;31.30;99.90;;;;;;12470023;28;20536;-81
2022/08/25 14:59:29;;;;;;;8.05;4.32;;;31.30;99.90;;;;;;12491132;28;19925;-82
2022/08/25 15:05:31;;;;;;;11.13;5.07;;;31.00;99.90;;;;;;12476693;28;20046;-81
2022/08/25 15:11:35;;;;;;;10.43;5.32;;;30.80;99.90;;;;;;12479701;28;20081;-80
2022/08/25 15:17:43;;;;;;;8.10;4.63;;;30.30;99.90;;;;;;12487567;28;20042;-81
2022/08/25 15:23:45;;;;;;;7.88;4.40;;;29.70;99.90;;;;;;12495967;28;20103;-80
2022/08/25 15:29:49;;;;;;;11.38;4.95;;;29.20;99.90;;;;;;12495103;28;20414;-81
2022/08/25 15:35:52;;;;;;;7.68;4.95;;;29.30;99.90;;;;;;12501371;28;20513;-81
2022/08/25 15:41:57;;;;;;;11.55;4.90;;;29.60;99.90;;;;;;12494205;28;20061;-81
2022/08/25 15:47:59;;;;;;;10.50;4.95;;;29.80;99.90;;;;;;12501669;28;20057;-81
2022/08/25 15:54:01;;;;;;;17.05;4.72;;;29.30;99.90;;;;;;12493940;28;20525;-81
2022/08/25 16:00:10;;;;;;;8.20;4.85;;;29.90;99.90;;;;;;12489443;28;20482;-80
2022/08/25 16:06:14;;;;;;;8.00;4.28;;;30.00;99.90;;;;;;12506569;28;20437;-81
2022/08/25 16:12:18;;;;;;;10.23;4.72;;;30.20;99.90;;;;;;12494835;28;20048;-81
2022/08/25 16:18:21;;;;;;;;;;;29.70;99.90;;;;;;12488019;28;20413;-81
2022/08/25 16:24:23;;;;;;;10.95;5.43;;;29.40;99.90;;;;;;12474988;28;19921;-81
2022/08/25 16:30:25;;;;;;;10.82;4.95;;;29.40;99.90;;;;;;12499910;28;20494;-81
2022/08/25 16:36:28;;;;;;;12.05;5.18;;;29.30;99.90;;;;;;12497526;28;20080;-81
2022/08/25 16:42:34;;;;;;;7.82;4.53;;;29.20;99.90;;;;;;12474109;28;20053;-81
2022/08/25 16:48:39;;;;;;;9.25;4.70;;;29.10;99.90;;;;;;12490437;28;20418;-81
2022/08/25 17:01:06;;;;;;;13.27;5.07;;;28.90;99.90;;;;;;12485846;28;20052;-81
2022/08/25 17:07:12;;;;;;;13.32;4.80;;;28.90;99.90;;;;;;12487898;28;20456;-81
2022/08/25 17:13:24;;;;;;;12.50;5.47;;;28.70;99.90;;;;;;12478146;28;20037;-81
2022/08/25 17:19:26;;;;;;;10.32;4.95;;;28.40;99.90;;;;;;12475467;28;20126;-81
2022/08/25 17:25:28;;;;;;;14.23;5.03;;;28.20;99.90;;;;;;12482475;28;20042;-81
2022/08/25 17:31:33;;;;;;;12.13;4.93;;;28.10;99.90;;;;;;12488432;28;20073;-80
2022/08/25 17:37:35;;;;;;;12.52;4.85;;;27.90;99.90;;;;;;12489898;28;20172;-80
2022/08/25 17:43:42;;;;;;;9.40;4.90;;;27.70;99.90;;;;;;12499002;28;20041;-80
2022/08/25 17:49:44;;;;;;;9.48;4.60;;;27.70;99.90;;;;;;12511419;28;20045;-81
2022/08/25 17:55:55;;;;;;;18.07;4.57;;;27.60;99.90;;;;;;12485974;28;20061;-81
2022/08/25 18:01:59;;;;;;;11.88;4.80;;;27.50;99.90;;;;;;12494046;28;20508;-80
2022/08/25 18:08:02;;;;;;;10.10;5.00;;;27.40;99.90;;;;;;12477979;28;20072;-81
2022/08/25 18:14:12;;;;;;;16.85;4.85;;;27.30;99.90;;;;;;12475646;28;20100;-80
2022/08/25 18:20:14;;;;;;;13.32;4.88;;;27.20;99.90;;;;;;12477003;28;20053;-80
2022/08/25 18:26:19;;;;;;;12.30;4.32;;;27.10;99.90;;;;;;12487138;28;20050;-80
2022/08/25 18:32:26;;;;;;;11.63;5.00;;;27.00;99.90;;;;;;12497022;28;20049;-80
2022/08/25 18:45:00;;;;;;;16.48;5.38;;;26.70;99.90;;;;;;12500291;28;20188;-80
2022/08/25 18:51:02;;;;;;;16.48;5.45;;;26.60;99.90;;;;;;12499939;28;20079;-80
2022/08/25 18:57:04;;;;;;;11.13;4.95;;;26.50;99.90;;;;;;12488237;28;20083;-80
2022/08/25 19:03:11;;;;;;;13.82;4.60;;;26.50;99.90;;;;;;12510286;28;20144;-80
2022/08/25 19:09:13;;;;;;;12.57;4.78;;;26.40;99.90;;;;;;12529728;28;20056;-80
2022/08/25 19:15:17;;;;;;;14.90;4.53;;;26.40;99.90;;;;;;12508186;28;20041;-80
2022/08/25 19:21:28;;;;;;;13.80;5.13;;;26.40;99.90;;;;;;12507188;28;20068;-80
2022/08/25 19:27:31;;;;;;;10.80;4.57;;;26.40;99.90;;;;;;12494294;28;20061;-79
2022/08/25 19:33:35;;;;;;;12.70;4.70;;;26.30;99.90;;;;;;12494617;28;20042;-79
2022/08/25 19:39:47;;;;;;;10.93;4.90;;;26.20;99.90;;;;;;12506682;28;20050;-79
2022/08/25 19:45:54;;;;;;;9.98;4.63;;;25.90;99.90;;;;;;12511885;28;20136;-80
2022/08/25 19:52:00;;;;;;;14.90;4.60;;;25.80;99.90;;;;;;12496699;28;20049;-80
2022/08/25 19:58:02;;;;;;;9.10;4.93;;;25.70;99.90;;;;;;12484158;28;20056;-80
2022/08/25 20:04:04;;;;;;;11.63;4.93;;;25.60;99.90;;;;;;12484961;28;20041;-79
2022/08/25 20:10:09;;;;;;;13.15;5.38;;;25.40;99.90;;;;;;12484990;28;20049;-79
2022/08/25 20:16:15;;;;;;;9.50;4.80;;;25.40;99.90;;;;;;12446543;28;20038;-80
2022/08/25 20:22:20;;;;;;;14.25;5.30;;;25.20;99.90;;;;;;12489774;28;20045;-79
2022/08/25 20:28:27;;;;;;;11.32;5.38;;;25.10;99.90;;;;;;12478259;28;20158;-80
2022/08/25 20:34:29;;;;;;;13.98;5.20;;;25.00;99.90;;;;;;12488246;28;20033;-79
2022/08/25 20:40:33;;;;;;;8.32;4.80;;;24.90;99.90;;;;;;12501487;28;20052;-79
2022/08/25 20:46:38;;;;;;;11.43;5.70;;;24.90;99.90;;;;;;12483137;28;20547;-79
2022/08/25 20:52:41;;;;;;;15.67;5.23;;;24.80;99.90;;;;;;12492948;28;20513;-79
2022/08/25 20:58:45;;;;;;;12.32;5.22;;;24.70;99.90;;;;;;12485914;28;20046;-79
2022/08/25 21:04:47;;;;;;;13.27;5.23;;;24.60;99.90;;;;;;12487579;28;20057;-79
2022/08/25 21:10:50;;;;;;;12.18;5.38;;;24.70;99.90;;;;;;12480576;28;20143;-79
2022/08/25 21:16:54;;;;;;;14.70;5.38;;;24.70;99.90;;;;;;12486882;28;20053;-79
2022/08/25 21:22:56;;;;;;;16.20;5.45;;;24.70;99.90;;;;;;12488628;28;20049;-80
2022/08/25 21:29:00;;;;;;;17.00;5.03;;;24.60;99.90;;;;;;12485266;28;20054;-79
2022/08/25 21:35:03;;;;;;;13.32;5.22;;;24.60;99.90;;;;;;12517027;28;20079;-79
2022/08/25 21:41:20;;;;;;;15.80;5.57;;;24.60;99.90;;;;;;12488919;28;20057;-79
2022/08/25 21:47:22;;;;;;;16.73;5.60;;;24.70;99.90;;;;;;12481948;28;20058;-80
2022/08/25 21:53:24;;;;;;;13.85;5.10;;;24.60;99.90;;;;;;12494259;28;20037;-79
2022/08/25 21:59:29;;;;;;;;;;;24.50;99.90;;;;;;12492701;28;20516;-80
2022/08/25 22:05:35;;;;;;;13.85;5.25;;;24.30;99.90;;;;;;12502900;28;19929;-79
2022/08/25 22:11:39;;;;;;;11.93;5.15;;;24.20;99.90;;;;;;12483274;28;20053;-79
2022/08/25 22:17:41;;;;;;;16.70;5.57;;;24.20;99.90;;;;;;12465851;28;20057;-79
2022/08/25 22:23:43;;;;;;;17.73;5.28;;;24.10;99.90;;;;;;12486406;28;20493;-79
2022/08/25 22:29:46;;;;;;;13.10;5.20;;;24.20;99.90;;;;;;12502330;28;20128;-79
2022/08/25 22:35:48;;;;;;;12.73;5.20;;;24.20;99.90;;;;;;12490042;28;20054;-80
2022/08/25 22:42:02;;;;;;;12.48;5.35;;;24.10;99.90;;;;;;12510763;28;20054;-79
2022/08/25 22:48:04;;;;;;;16.77;5.85;;;23.90;99.90;;;;;;12497478;28;20450;-78
2022/08/25 22:54:06;;;;;;;12.30;5.40;;;23.90;99.90;;;;;;12504264;28;20524;-79
2022/08/25 23:00:13;;;;;;;12.77;5.30;;;23.70;99.90;;;;;;12500672;28;20076;-79
2022/08/25 23:06:19;;;;;;;15.25;5.78;;;23.70;99.90;;;;;;12489626;28;20056;-79
2022/08/25 23:12:27;;;;;;;13.90;5.55;;;23.90;99.90;;;;;;12510915;28;20054;-80
2022/08/25 23:18:29;;;;;;;;;;;23.90;99.90;;;;;;12510604;28;20045;-79
2022/08/25 23:24:31;;;;;;;12.85;5.90;;;23.70;99.90;;;;;;12489839;28;20380;-79
2022/08/25 23:30:33;;;;;;;14.93;5.35;;;23.60;99.90;;;;;;12494776;28;20046;-79
2022/08/25 23:36:35;;;;;;;17.92;5.35;;;23.70;99.90;;;;;;12487001;28;20049;-79
2022/08/25 23:42:37;;;;;;;19.87;5.73;;;23.70;99.90;;;;;;12494175;28;20133;-79
2022/08/25 23:48:43;;;;;;;17.80;5.35;;;23.70;99.90;;;;;;12502540;28;20308;-79
2022/08/25 23:54:46;;;;;;;14.97;5.47;;;23.70;99.90;;;;;;12503622;28;20049;-80
